Terminal Aerodrome Forecast
Issued by NWS Chicago, IL

Home | Current Version | Previous Version | Text Only | Print | Product List | Glossary On
Versions: 1 2 3 4 5 6 7 8 9 10 11 12 13 14 15 16 17 18 19 20 21 22 23 24 25
487
FTUS43 KLOT 291503 AAA
TAFRFD
TAF AMD
KRFD 291503Z 2915/3012 27014G22KT P6SM FEW080
     FM291700 27016G26KT P6SM SCT060
     FM292200 27016G26KT P6SM VCSH BKN060
     FM300100 27010KT P6SM BKN050
     FM300700 25007KT P6SM SKC=

USA.gov is the U.S. government's official web portal to all federal, state and local government web resources and services.